createdAt,value
2022-11-18T00:01:28.631Z,5.50
2022-11-18T00:03:57.274Z,6.00
2022-11-18T00:06:28.051Z,5.53
2022-11-18T00:08:57.196Z,5.78
2022-11-18T00:11:45.739Z,5.95
2022-11-18T00:14:21.328Z,6.20
2022-11-18T00:17:03.863Z,5.75
2022-11-18T00:19:40.411Z,5.57
2022-11-18T00:22:13.332Z,6.15
2022-11-18T00:24:41.496Z,5.65
2022-11-18T00:27:12.502Z,7.50
2022-11-18T00:29:40.699Z,7.07
2022-11-18T00:32:09.056Z,6.90
2022-11-18T00:34:37.015Z,7.03
2022-11-18T00:37:05.237Z,6.55
2022-11-18T00:39:33.299Z,6.00
2022-11-18T00:42:20.194Z,5.28
2022-11-18T00:44:48.438Z,6.53
2022-11-18T00:47:16.494Z,5.75
2022-11-18T00:49:44.595Z,5.75
2022-11-18T00:52:12.804Z,6.05
2022-11-18T00:54:40.889Z,6.13
2022-11-18T00:57:08.992Z,6.35
2022-11-18T00:59:37.358Z,5.90
2022-11-18T01:02:05.367Z,6.10
2022-11-18T01:04:33.570Z,6.07
2022-11-18T01:07:01.748Z,5.80
2022-11-18T01:09:29.868Z,6.25
2022-11-18T01:12:16.867Z,5.72
2022-11-18T01:14:44.969Z,5.32
2022-11-18T01:17:13.607Z,5.35
2022-11-18T01:19:41.750Z,5.68
2022-11-18T01:22:09.822Z,5.28
2022-11-18T01:24:37.827Z,4.78
2022-11-18T01:27:05.987Z,5.70
2022-11-18T01:29:34.063Z,5.25
2022-11-18T01:32:23.225Z,5.25
2022-11-18T01:34:50.190Z,5.70
2022-11-18T01:37:18.142Z,5.95
2022-11-18T01:39:46.096Z,5.57
2022-11-18T01:42:17.774Z,5.65
2022-11-18T01:47:43.910Z,5.70
2022-11-18T01:50:15.200Z,5.07
2022-11-18T01:52:48.781Z,5.53
2022-11-18T01:55:28.531Z,5.50
2022-11-18T01:58:13.153Z,4.80
2022-11-18T02:00:42.161Z,5.35
2022-11-18T02:03:10.270Z,6.07
2022-11-18T02:05:41.881Z,5.05
2022-11-18T02:08:11.355Z,4.78
2022-11-18T02:10:39.225Z,4.88
2022-11-18T02:13:07.946Z,5.95
2022-11-18T02:15:53.869Z,5.15
2022-11-18T02:18:53.841Z,6.28
2022-11-18T02:21:28.314Z,5.68
2022-11-18T02:24:51.702Z,5.15
2022-11-18T02:27:47.308Z,5.32
2022-11-18T02:30:18.816Z,5.53
2022-11-18T02:33:04.184Z,5.50
2022-11-18T02:35:45.809Z,5.32
2022-11-18T02:38:37.359Z,5.30
2022-11-18T02:41:13.603Z,5.72
2022-11-18T02:43:54.519Z,4.97
2022-11-18T02:46:35.518Z,4.50
2022-11-18T02:49:23.250Z,4.85
2022-11-18T02:51:51.764Z,4.65
2022-11-18T02:54:22.789Z,5.70
2022-11-18T02:56:54.297Z,5.15
2022-11-18T02:59:22.410Z,5.25
2022-11-18T03:01:51.466Z,5.13
2022-11-18T03:04:21.506Z,4.72
2022-11-18T03:07:23.000Z,5.93
2022-11-18T03:09:53.274Z,5.15
2022-11-18T03:12:32.742Z,5.43
2022-11-18T03:15:13.754Z,5.57
2022-11-18T03:18:04.570Z,5.07
2022-11-18T03:20:42.393Z,5.28
2022-11-18T03:23:32.775Z,5.13
2022-11-18T03:26:14.400Z,5.38
2022-11-18T03:29:04.712Z,5.18
2022-11-18T03:31:49.191Z,5.22
2022-11-18T03:34:34.914Z,5.22
2022-11-18T03:37:10.384Z,4.82
2022-11-18T03:39:44.828Z,5.55
2022-11-18T03:42:38.384Z,4.97
2022-11-18T03:45:31.482Z,5.35
2022-11-18T03:48:17.481Z,5.32
2022-11-18T03:51:01.511Z,4.95
2022-11-18T03:53:34.338Z,5.05
2022-11-18T03:56:17.691Z,5.82
2022-11-18T03:59:06.750Z,5.10
2022-11-18T04:01:47.277Z,4.80
2022-11-18T04:04:15.909Z,4.43
2022-11-18T04:06:58.975Z,4.45
2022-11-18T04:09:32.775Z,4.65
2022-11-18T04:12:11.307Z,4.40
2022-11-18T04:14:43.580Z,4.50
2022-11-18T04:17:19.861Z,4.45
2022-11-18T04:19:48.300Z,4.43
2022-11-18T04:22:16.794Z,4.18
2022-11-18T04:24:45.006Z,4.82
2022-11-18T04:27:13.910Z,4.57
2022-11-18T04:29:41.904Z,4.43
2022-11-18T04:32:09.955Z,5.07
2022-11-18T04:34:38.017Z,4.53
2022-11-18T04:37:06.225Z,5.05
2022-11-18T04:39:34.131Z,4.47
2022-11-18T04:42:02.341Z,4.90
2022-11-18T04:44:33.931Z,4.88
2022-11-18T04:47:05.951Z,5.30
2022-11-18T04:49:36.302Z,4.43
2022-11-18T04:52:05.509Z,5.00
2022-11-18T04:54:33.677Z,4.88
2022-11-18T04:57:01.761Z,5.68
2022-11-18T04:59:30.701Z,5.85
2022-11-18T05:02:01.301Z,5.20
2022-11-18T05:04:33.576Z,5.57
2022-11-18T05:07:04.795Z,5.20
2022-11-18T05:09:32.902Z,5.35
2022-11-18T05:12:20.441Z,5.07
2022-11-18T05:14:50.878Z,5.40
2022-11-18T05:17:19.521Z,6.07
2022-11-18T05:19:48.394Z,4.97
2022-11-18T05:22:16.795Z,5.65
2022-11-18T05:24:44.801Z,5.85
2022-11-18T05:27:14.580Z,5.53
2022-11-18T05:29:42.778Z,5.20
2022-11-18T05:32:11.033Z,5.10
2022-11-18T05:34:43.416Z,5.50
2022-11-18T05:37:11.653Z,4.65
2022-11-18T05:39:39.837Z,5.30
2022-11-18T05:42:27.333Z,4.70
2022-11-18T05:44:58.426Z,5.10
2022-11-18T05:47:27.318Z,4.80
2022-11-18T05:49:58.036Z,6.03
2022-11-18T05:52:25.968Z,6.03
2022-11-18T05:54:54.449Z,5.97
2022-11-18T05:57:23.175Z,5.63
2022-11-18T05:59:51.514Z,5.18
2022-11-18T06:02:24.795Z,4.80
2022-11-18T06:05:00.085Z,5.60
2022-11-18T06:07:40.186Z,5.07
2022-11-18T06:10:10.160Z,4.93
2022-11-18T06:12:45.347Z,5.03
2022-11-18T06:15:20.045Z,4.95
2022-11-18T06:18:15.673Z,4.90
2022-11-18T06:20:44.030Z,4.90
2022-11-18T06:23:13.276Z,4.97
2022-11-18T06:25:42.854Z,4.88
2022-11-18T06:28:15.250Z,5.13
2022-11-18T06:30:43.793Z,5.43
2022-11-18T06:33:11.871Z,4.68
2022-11-18T06:35:41.899Z,5.00
2022-11-18T06:38:10.185Z,5.35
2022-11-18T06:40:38.345Z,5.03
2022-11-18T06:43:29.448Z,4.85
2022-11-18T06:46:20.940Z,4.80
2022-11-18T06:48:49.323Z,5.18
2022-11-18T06:51:18.022Z,4.95
2022-11-18T06:53:46.016Z,4.70
2022-11-18T06:56:16.966Z,4.60
2022-11-18T06:58:45.929Z,4.70
2022-11-18T07:01:22.055Z,4.88
2022-11-18T07:03:51.118Z,5.60
2022-11-18T07:06:26.714Z,5.28
2022-11-18T07:08:55.831Z,5.45
2022-11-18T07:11:26.644Z,4.65
2022-11-18T07:13:54.819Z,4.73
2022-11-18T07:16:27.713Z,5.53
2022-11-18T07:18:57.435Z,5.28
2022-11-18T07:21:29.057Z,4.90
2022-11-18T07:23:57.606Z,4.87
2022-11-18T07:26:25.719Z,4.97
2022-11-18T07:28:54.528Z,5.07
2022-11-18T07:31:22.658Z,5.20
2022-11-18T07:33:54.873Z,5.18
2022-11-18T07:36:32.349Z,4.55
2022-11-18T07:39:06.807Z,5.32
2022-11-18T07:41:35.819Z,4.80
2022-11-18T07:44:05.435Z,5.43
2022-11-18T07:46:38.383Z,5.00
2022-11-18T07:49:09.266Z,4.68
2022-11-18T07:51:40.123Z,5.15
2022-11-18T07:54:11.090Z,4.83
2022-11-18T07:56:39.542Z,5.47
2022-11-18T07:59:09.050Z,5.45
2022-11-18T08:01:37.398Z,4.90
2022-11-18T08:04:12.511Z,5.60
2022-11-18T08:06:41.592Z,6.03
2022-11-18T08:09:10.217Z,6.13
2022-11-18T08:11:38.516Z,5.40
2022-11-18T08:14:06.530Z,5.25
2022-11-18T08:16:34.497Z,5.65
2022-11-18T08:19:02.616Z,5.18
2022-11-18T08:21:30.709Z,5.43
2022-11-18T08:23:59.214Z,4.70
2022-11-18T08:26:28.723Z,5.80
2022-11-18T08:28:58.036Z,4.78
2022-11-18T08:31:29.471Z,5.63
2022-11-18T08:34:07.705Z,4.90
2022-11-18T08:36:38.238Z,4.88
2022-11-18T08:39:09.001Z,5.03
2022-11-18T08:41:44.798Z,4.82
2022-11-18T08:44:15.619Z,5.30
2022-11-18T08:46:46.031Z,4.63
2022-11-18T08:49:14.153Z,5.10
2022-11-18T08:51:42.365Z,4.78
2022-11-18T08:54:10.642Z,4.68
2022-11-18T08:56:39.274Z,4.57
2022-11-18T08:59:08.568Z,5.15
2022-11-18T09:01:38.487Z,5.88
2022-11-18T09:04:06.577Z,5.47
2022-11-18T09:06:35.028Z,5.10
2022-11-18T09:09:06.542Z,4.10
2022-11-18T09:15:06.334Z,5.05
2022-11-18T09:16:51.995Z,9.98
2022-11-18T09:22:09.865Z,9.65
2022-11-18T09:24:38.319Z,5.68
2022-11-18T09:27:12.193Z,5.55
2022-11-18T09:29:43.706Z,5.32
2022-11-18T09:32:11.739Z,5.93
2022-11-18T09:34:39.765Z,5.28
2022-11-18T09:37:09.538Z,6.15
2022-11-18T09:39:37.919Z,6.07
2022-11-18T09:42:26.582Z,9.40
2022-11-18T09:45:37.230Z,9.18
2022-11-18T09:48:42.347Z,7.85
2022-11-18T09:51:11.916Z,6.03
2022-11-18T09:53:44.346Z,7.07
2022-11-18T09:56:16.637Z,7.80
2022-11-18T09:58:46.148Z,6.95
2022-11-18T10:01:19.921Z,7.30
2022-11-18T10:03:48.349Z,6.75
2022-11-18T10:06:32.040Z,6.57
2022-11-18T10:09:12.354Z,7.20
2022-11-18T10:12:04.766Z,6.30
2022-11-18T10:15:14.757Z,6.72
2022-11-18T10:18:06.023Z,6.72
2022-11-18T10:21:00.261Z,6.65
2022-11-18T10:24:09.064Z,6.65
2022-11-18T10:26:41.590Z,7.18
2022-11-18T10:29:12.632Z,6.72
2022-11-18T10:32:05.481Z,6.88
2022-11-18T10:34:36.192Z,7.07
2022-11-18T10:37:07.340Z,7.17
2022-11-18T10:40:03.836Z,7.32
2022-11-18T10:42:41.648Z,7.38
2022-11-18T10:45:21.764Z,7.15
2022-11-18T10:47:59.036Z,8.00
2022-11-18T10:50:41.361Z,7.68
2022-11-18T10:53:35.443Z,8.07
2022-11-18T10:56:11.732Z,7.82
2022-11-18T10:58:50.631Z,7.13
2022-11-18T11:01:26.777Z,7.72
2022-11-18T11:04:02.927Z,7.30
2022-11-18T11:06:39.165Z,6.75
2022-11-18T11:09:14.567Z,7.28
2022-11-18T11:11:57.815Z,7.28
2022-11-18T11:14:55.567Z,7.95
2022-11-18T11:17:29.483Z,8.38
2022-11-18T11:20:24.250Z,7.88
2022-11-18T11:22:52.155Z,7.57
2022-11-18T11:28:58.204Z,6.93
2022-11-18T11:31:41.259Z,7.60
2022-11-18T11:34:17.841Z,8.35
2022-11-18T11:37:03.703Z,8.82
2022-11-18T11:39:52.915Z,9.48
2022-11-18T11:42:50.114Z,10.02
2022-11-18T11:45:44.248Z,10.13
2022-11-18T11:48:33.333Z,10.77
2022-11-18T11:51:42.699Z,10.32
2022-11-18T11:54:54.132Z,10.10
2022-11-18T11:57:48.619Z,10.90
2022-11-18T12:00:21.588Z,10.38
2022-11-18T12:03:52.464Z,10.98
2022-11-18T12:06:21.049Z,10.45
2022-11-18T12:09:13.633Z,10.43
2022-11-18T12:12:01.925Z,9.63
2022-11-18T12:14:50.940Z,10.98
2022-11-18T12:17:54.026Z,9.82
2022-11-18T12:20:40.845Z,11.52
2022-11-18T12:23:18.732Z,10.70
2022-11-18T12:26:04.426Z,12.48
2022-11-18T12:28:42.559Z,12.52
2022-11-18T12:31:19.968Z,11.60
2022-11-18T12:34:18.104Z,11.23
2022-11-18T12:36:46.741Z,9.93
2022-11-18T12:39:24.758Z,11.32
2022-11-18T12:42:23.186Z,10.45
2022-11-18T12:44:53.000Z,11.50
2022-11-18T12:47:42.767Z,11.70
2022-11-18T12:50:14.774Z,11.23
2022-11-18T12:52:50.170Z,14.13
2022-11-18T12:55:32.768Z,14.77
2022-11-18T12:58:01.108Z,17.80
2022-11-18T13:00:33.208Z,17.45
2022-11-18T13:03:02.413Z,17.73
2022-11-18T13:05:35.138Z,15.98
2022-11-18T13:08:13.676Z,19.20
2022-11-18T13:10:45.521Z,14.07
2022-11-18T13:13:29.193Z,13.10
2022-11-18T13:16:38.667Z,13.68
2022-11-18T13:19:06.684Z,12.32
2022-11-18T13:21:54.298Z,13.02
2022-11-18T13:24:23.621Z,12.05
2022-11-18T13:26:58.413Z,13.65
2022-11-18T13:30:09.589Z,13.25
2022-11-18T13:32:47.909Z,11.90
2022-11-18T13:35:23.457Z,13.38
2022-11-18T13:38:01.287Z,12.98
2022-11-18T13:41:04.468Z,13.85
2022-11-18T13:43:34.184Z,11.75
2022-11-18T13:46:13.680Z,12.25
2022-11-18T13:48:57.382Z,13.18
2022-11-18T13:51:26.520Z,12.43
2022-11-18T13:53:54.646Z,13.15
2022-11-18T13:56:34.442Z,11.90
2022-11-18T13:59:20.633Z,12.23
2022-11-18T14:01:56.468Z,12.85
2022-11-18T14:04:29.563Z,14.50
2022-11-18T14:07:26.931Z,14.05
2022-11-18T14:10:09.149Z,12.30
2022-11-18T14:12:37.716Z,13.35
2022-11-18T14:15:32.824Z,13.23
2022-11-18T14:18:02.836Z,13.27
2022-11-18T14:20:32.156Z,11.60
2022-11-18T14:23:07.941Z,13.10
2022-11-18T14:25:37.060Z,12.07
2022-11-18T14:28:17.239Z,13.68
2022-11-18T14:31:21.830Z,13.60
2022-11-18T14:34:24.211Z,13.98
2022-11-18T14:36:53.502Z,14.88
2022-11-18T14:39:31.204Z,13.68
2022-11-18T14:41:59.830Z,12.95
2022-11-18T14:44:28.957Z,13.52
2022-11-18T14:47:21.151Z,14.45
2022-11-18T14:49:49.073Z,15.13
2022-11-18T14:52:17.401Z,16.08
2022-11-18T14:54:45.670Z,14.80
2022-11-18T14:57:17.436Z,14.02
2022-11-18T14:59:45.596Z,14.07
2022-11-18T15:02:17.215Z,13.00
2022-11-18T15:07:21.789Z,15.00
2022-11-18T15:09:51.937Z,14.45
2022-11-18T15:12:20.300Z,19.20
2022-11-18T15:14:48.536Z,17.00
2022-11-18T15:17:16.703Z,15.68
2022-11-18T15:19:44.881Z,15.90
2022-11-18T15:22:13.037Z,15.88
2022-11-18T15:24:41.647Z,16.85
2022-11-18T15:27:10.362Z,16.23
2022-11-18T15:29:38.436Z,14.43
2022-11-18T15:32:07.011Z,15.25
2022-11-18T15:34:35.194Z,17.73
2022-11-18T15:37:03.400Z,18.35
2022-11-18T15:39:31.618Z,17.17
2022-11-18T15:41:59.791Z,21.48
2022-11-18T15:44:27.953Z,19.05
2022-11-18T15:46:57.414Z,19.30
2022-11-18T15:49:25.624Z,18.73
2022-11-18T15:51:53.918Z,16.85
2022-11-18T15:54:22.062Z,16.48
2022-11-18T15:56:50.282Z,17.88
2022-11-18T15:59:18.950Z,18.10
2022-11-18T16:01:49.726Z,16.58
2022-11-18T16:04:20.576Z,17.77
2022-11-18T16:06:49.749Z,16.80
2022-11-18T16:09:18.628Z,18.15
2022-11-18T16:12:05.467Z,17.17
2022-11-18T16:14:38.403Z,16.80
2022-11-18T16:17:07.058Z,16.60
2022-11-18T16:19:35.182Z,17.42
2022-11-18T16:22:03.350Z,17.90
2022-11-18T16:24:31.558Z,17.10
2022-11-18T16:26:59.769Z,16.95
2022-11-18T16:29:27.821Z,16.95
2022-11-18T16:31:55.896Z,16.92
2022-11-18T16:34:28.601Z,17.60
2022-11-18T16:37:02.465Z,17.85
2022-11-18T16:39:30.867Z,17.60
2022-11-18T16:42:07.911Z,18.08
2022-11-18T16:44:38.056Z,16.38
2022-11-18T16:47:12.678Z,18.35
2022-11-18T16:49:43.576Z,17.15
2022-11-18T16:52:11.771Z,18.08
2022-11-18T16:54:44.890Z,18.85
2022-11-18T16:57:14.460Z,18.83
2022-11-18T16:59:42.592Z,17.58
2022-11-18T17:02:14.084Z,18.15
2022-11-18T17:04:42.912Z,18.65
2022-11-18T17:07:11.301Z,16.02
2022-11-18T17:09:39.773Z,18.45
2022-11-18T17:12:08.335Z,18.17
2022-11-18T17:14:38.458Z,18.98
2022-11-18T17:17:07.726Z,20.17
2022-11-18T17:19:37.079Z,19.52
2022-11-18T17:22:05.304Z,20.00
2022-11-18T17:24:33.466Z,20.83
2022-11-18T17:27:01.968Z,19.60
2022-11-18T17:29:30.073Z,20.55
2022-11-18T17:31:58.249Z,20.33
2022-11-18T17:34:26.606Z,19.38
2022-11-18T17:36:54.575Z,20.33
2022-11-18T17:39:22.491Z,20.67
2022-11-18T17:42:09.280Z,19.92
2022-11-18T17:44:37.274Z,20.70
2022-11-18T17:47:07.041Z,20.10
2022-11-18T17:49:38.066Z,18.67
2022-11-18T17:52:06.187Z,17.20
2022-11-18T17:54:34.299Z,19.73
2022-11-18T17:57:02.789Z,17.67
2022-11-18T17:59:30.955Z,17.48
2022-11-18T18:01:59.755Z,17.33
2022-11-18T18:04:28.363Z,16.98
2022-11-18T18:06:57.115Z,18.65
2022-11-18T18:09:30.581Z,18.45
2022-11-18T18:12:01.053Z,17.85
2022-11-18T18:14:29.171Z,17.88
2022-11-18T18:16:57.902Z,17.38
2022-11-18T18:19:26.435Z,19.65
2022-11-18T18:21:57.641Z,18.45
2022-11-18T18:24:26.183Z,17.25
2022-11-18T18:26:55.796Z,18.33
2022-11-18T18:29:26.032Z,17.52
2022-11-18T18:31:56.898Z,16.73
2022-11-18T18:34:29.019Z,17.48
2022-11-18T18:36:57.432Z,16.98
2022-11-18T18:39:25.485Z,17.25
2022-11-18T18:41:53.623Z,16.48
2022-11-18T18:44:21.977Z,17.08
2022-11-18T18:46:50.253Z,16.35
2022-11-18T18:49:20.816Z,16.17
2022-11-18T18:51:49.652Z,17.08
2022-11-18T18:54:20.563Z,16.67
2022-11-18T18:56:48.977Z,15.90
2022-11-18T18:59:17.204Z,16.05
2022-11-18T19:01:46.825Z,15.95
2022-11-18T19:04:16.863Z,15.90
2022-11-18T19:07:00.283Z,17.85
2022-11-18T19:09:28.999Z,16.10
2022-11-18T19:12:16.323Z,14.07
2022-11-18T19:14:44.933Z,14.10
2022-11-18T19:17:13.269Z,14.32
2022-11-18T19:20:02.160Z,13.73
2022-11-18T19:22:33.413Z,13.70
2022-11-18T19:25:02.113Z,13.70
2022-11-18T19:27:50.337Z,13.00
2022-11-18T19:30:18.733Z,13.02
2022-11-18T19:32:46.857Z,13.30
2022-11-18T19:35:15.634Z,11.38
2022-11-18T19:37:44.052Z,11.82
2022-11-18T19:40:12.712Z,12.60
2022-11-18T19:42:42.936Z,11.05
2022-11-18T19:45:12.050Z,10.88
2022-11-18T19:47:40.549Z,10.23
2022-11-18T19:50:09.380Z,10.07
2022-11-18T19:52:37.446Z,10.25
2022-11-18T19:55:05.959Z,10.82
2022-11-18T19:57:34.222Z,10.52
2022-11-18T20:00:04.192Z,11.38
2022-11-18T20:02:38.888Z,11.45
2022-11-18T20:05:25.624Z,12.20
2022-11-18T20:07:57.409Z,12.48
2022-11-18T20:10:25.338Z,12.20
2022-11-18T20:12:53.179Z,12.00
2022-11-18T20:15:21.357Z,13.05
2022-11-18T20:17:50.719Z,12.60
2022-11-18T20:20:18.759Z,13.15
2022-11-18T20:22:47.312Z,11.55
2022-11-18T20:25:16.516Z,12.40
2022-11-18T20:27:44.412Z,12.32
2022-11-18T20:30:12.948Z,12.75
2022-11-18T20:32:41.045Z,13.07
2022-11-18T20:35:09.653Z,13.35
2022-11-18T20:37:40.006Z,13.38
2022-11-18T20:40:09.340Z,13.07
2022-11-18T20:42:56.559Z,13.63
2022-11-18T20:45:25.040Z,12.48
2022-11-18T20:47:52.961Z,14.27
2022-11-18T20:50:21.062Z,12.10
2022-11-18T20:52:49.337Z,13.20
2022-11-18T20:55:17.531Z,12.27
2022-11-18T20:57:45.707Z,11.80
2022-11-18T21:00:14.264Z,11.70
2022-11-18T21:02:42.268Z,11.55
2022-11-18T21:05:10.707Z,11.75
2022-11-18T21:07:38.670Z,12.35
2022-11-18T21:10:08.271Z,12.77
2022-11-18T21:12:36.459Z,13.43
2022-11-18T21:15:05.028Z,13.55
2022-11-18T21:17:35.957Z,12.98
2022-11-18T21:20:24.527Z,11.85
2022-11-18T21:22:52.842Z,13.50
2022-11-18T21:25:20.870Z,12.75
2022-11-18T21:27:48.919Z,10.10
2022-11-18T21:30:19.289Z,11.57
2022-11-18T21:32:50.028Z,10.93
2022-11-18T21:35:18.423Z,10.73
2022-11-18T21:37:46.275Z,10.82
2022-11-18T21:40:14.797Z,12.15
2022-11-18T21:42:43.006Z,11.70
2022-11-18T21:45:11.336Z,11.60
2022-11-18T21:47:39.282Z,11.98
2022-11-18T21:50:08.544Z,10.82
2022-11-18T21:52:36.641Z,11.32
2022-11-18T21:55:05.524Z,10.75
2022-11-18T21:57:33.523Z,9.57
2022-11-18T22:00:02.443Z,10.18
2022-11-18T22:02:39.835Z,9.68
2022-11-18T22:05:09.605Z,9.45
2022-11-18T22:07:38.513Z,10.20
2022-11-18T22:10:08.239Z,8.65
2022-11-18T22:12:36.197Z,9.38
2022-11-18T22:15:04.558Z,8.73
2022-11-18T22:17:33.605Z,8.57
2022-11-18T22:20:03.364Z,8.10
2022-11-18T22:22:31.527Z,8.70
2022-11-18T22:24:59.849Z,8.55
2022-11-18T22:27:27.835Z,7.13
2022-11-18T22:29:55.872Z,6.93
2022-11-18T22:32:24.244Z,6.82
2022-11-18T22:34:52.154Z,6.65
2022-11-18T22:37:20.018Z,6.32
2022-11-18T22:39:48.276Z,6.57
2022-11-18T22:42:35.144Z,5.60
2022-11-18T22:45:03.974Z,6.10
2022-11-18T22:47:31.799Z,6.25
2022-11-18T22:49:59.978Z,5.85
2022-11-18T22:52:29.009Z,5.53
2022-11-18T22:54:57.270Z,5.40
2022-11-18T22:57:25.433Z,5.55
2022-11-18T22:59:53.635Z,5.70
2022-11-18T23:02:21.586Z,5.78
2022-11-18T23:04:49.540Z,5.15
2022-11-18T23:07:17.627Z,3.97
2022-11-18T23:09:45.748Z,5.75
2022-11-18T23:12:52.145Z,5.85
2022-11-18T23:15:20.455Z,5.18
2022-11-18T23:17:48.353Z,6.28
2022-11-18T23:20:16.883Z,5.60
2022-11-18T23:22:44.909Z,5.72
2022-11-18T23:25:12.962Z,5.78
2022-11-18T23:27:41.200Z,5.10
2022-11-18T23:30:09.725Z,4.90
2022-11-18T23:32:37.538Z,6.28
2022-11-18T23:35:06.167Z,5.97
2022-11-18T23:37:34.194Z,6.20
2022-11-18T23:40:02.225Z,5.88
2022-11-18T23:42:30.369Z,5.93
2022-11-18T23:45:03.797Z,5.78
2022-11-18T23:47:33.284Z,5.78
2022-11-18T23:50:01.243Z,6.25
2022-11-18T23:52:29.509Z,6.72
2022-11-18T23:54:59.557Z,6.97
2022-11-18T23:57:27.737Z,6.75
2022-11-18T23:59:55.925Z,6.97
